createdAt,value
2019-06-04T00:03:21.550Z,18.77
2019-06-04T00:08:17.462Z,18.86
2019-06-04T00:13:14.405Z,18.84
2019-06-04T00:18:10.377Z,18.80
2019-06-04T00:23:07.391Z,18.86
2019-06-04T00:28:03.810Z,18.74
2019-06-04T00:33:00.047Z,18.73
2019-06-04T00:37:56.337Z,18.65
2019-06-04T00:42:52.254Z,18.70
2019-06-04T00:47:49.204Z,18.56
2019-06-04T00:52:44.815Z,18.70
2019-06-04T00:57:41.060Z,18.93
2019-06-04T01:02:37.979Z,18.88
2019-06-04T01:07:33.705Z,18.83
2019-06-04T01:12:29.611Z,19.04
2019-06-04T01:17:25.365Z,19.07
2019-06-04T01:22:21.550Z,18.86
2019-06-04T01:27:17.529Z,18.52
2019-06-04T01:32:21.002Z,18.40
2019-06-04T01:37:12.204Z,18.41
2019-06-04T01:42:08.954Z,18.40
2019-06-04T01:47:05.670Z,18.33
2019-06-04T01:52:02.180Z,18.65
2019-06-04T01:56:58.301Z,18.75
2019-06-04T02:01:54.325Z,18.70
2019-06-04T02:06:50.264Z,18.89
2019-06-04T02:11:46.995Z,18.95
2019-06-04T02:16:42.716Z,18.96
2019-06-04T02:21:38.798Z,18.92
2019-06-04T02:26:35.000Z,18.92
2019-06-04T02:31:30.783Z,18.98
2019-06-04T02:36:26.520Z,18.75
2019-06-04T02:41:22.790Z,18.60
2019-06-04T02:46:19.879Z,18.71
2019-06-04T02:51:15.663Z,18.73
2019-06-04T02:56:11.726Z,18.78
2019-06-04T03:01:09.445Z,18.77
2019-06-04T03:06:06.631Z,18.89
2019-06-04T03:11:03.370Z,18.90
2019-06-04T03:15:59.201Z,18.77
2019-06-04T03:20:55.148Z,18.60
2019-06-04T03:25:51.212Z,18.50
2019-06-04T03:30:47.059Z,18.63
2019-06-04T03:35:43.591Z,18.65
2019-06-04T03:40:39.756Z,18.52
2019-06-04T03:45:35.887Z,18.40
2019-06-04T03:50:31.956Z,18.47
2019-06-04T03:55:27.861Z,18.43
2019-06-04T04:00:29.161Z,18.41
2019-06-04T04:05:24.846Z,18.35
2019-06-04T04:10:22.653Z,18.44
2019-06-04T04:15:18.690Z,18.45
2019-06-04T04:20:14.819Z,18.50
2019-06-04T04:25:10.973Z,18.50
2019-06-04T04:30:07.528Z,18.52
2019-06-04T04:35:04.707Z,18.63
2019-06-04T04:40:01.481Z,19.02
2019-06-04T04:44:59.156Z,19.11
2019-06-04T04:49:55.110Z,18.93
2019-06-04T04:54:50.984Z,18.89
2019-06-04T04:59:46.983Z,18.90
2019-06-04T05:04:49.173Z,18.83
2019-06-04T05:09:42.488Z,19.19
2019-06-04T05:14:39.743Z,19.00
2019-06-04T05:19:34.988Z,19.11
2019-06-04T05:24:32.015Z,18.89
2019-06-04T05:29:27.713Z,18.59
2019-06-04T05:34:24.562Z,19.19
2019-06-04T05:39:22.328Z,19.77
2019-06-04T05:44:19.915Z,20.00
2019-06-04T05:49:16.790Z,20.09
2019-06-04T05:54:13.298Z,19.91
2019-06-04T05:59:08.959Z,19.56
2019-06-04T06:04:04.753Z,19.52
2019-06-04T06:09:01.283Z,19.82
2019-06-04T06:13:57.616Z,20.21
2019-06-04T06:18:53.833Z,20.06
2019-06-04T06:23:50.065Z,20.13
2019-06-04T06:28:46.531Z,20.32
2019-06-04T06:33:42.890Z,20.62
2019-06-04T06:38:53.873Z,20.81
2019-06-04T06:43:39.903Z,21.03
2019-06-04T06:48:36.919Z,21.37
2019-06-04T06:53:34.329Z,21.39
2019-06-04T06:58:33.313Z,21.25
2019-06-04T07:03:30.938Z,21.43
2019-06-04T07:08:28.256Z,21.32
2019-06-04T07:13:23.399Z,21.11
2019-06-04T07:18:19.239Z,21.24
2019-06-04T07:23:15.263Z,21.43
2019-06-04T07:28:11.911Z,21.50
2019-06-04T07:33:08.940Z,21.42
2019-06-04T07:38:04.976Z,21.69
2019-06-04T07:43:01.245Z,21.85
2019-06-04T07:47:57.555Z,21.77
2019-06-04T07:52:53.535Z,21.82
2019-06-04T07:57:50.714Z,22.02
2019-06-04T08:02:49.421Z,22.02
2019-06-04T08:07:45.942Z,22.11
2019-06-04T08:12:43.548Z,22.41
2019-06-04T08:17:39.782Z,22.48
2019-06-04T08:22:35.536Z,22.43
2019-06-04T08:27:32.323Z,22.17
2019-06-04T08:32:33.775Z,22.78
2019-06-04T08:37:31.378Z,23.68
2019-06-04T08:42:29.142Z,24.20
2019-06-04T08:47:26.339Z,24.45
2019-06-04T08:52:23.303Z,25.23
2019-06-04T08:57:20.474Z,25.33
2019-06-04T09:02:16.868Z,25.31
2019-06-04T09:07:25.919Z,24.85
2019-06-04T09:12:12.769Z,24.84
2019-06-04T09:17:09.111Z,25.07
2019-06-04T09:22:03.936Z,23.96
2019-06-04T09:27:06.495Z,24.61
2019-06-04T09:32:01.114Z,25.06
2019-06-04T09:36:57.676Z,25.08
2019-06-04T09:41:54.389Z,24.86
2019-06-04T09:46:52.839Z,25.54
2019-06-04T09:51:49.193Z,26.16
2019-06-04T09:56:46.991Z,26.18
2019-06-04T10:01:47.343Z,25.99
2019-06-04T10:06:45.645Z,25.62
2019-06-04T10:11:42.528Z,25.88
2019-06-04T10:16:38.316Z,25.31
2019-06-04T10:21:36.762Z,25.84
2019-06-04T10:26:33.682Z,26.06
2019-06-04T10:31:29.623Z,25.48
2019-06-04T10:36:25.929Z,26.10
2019-06-04T10:41:22.548Z,26.75
2019-06-04T10:46:19.236Z,27.07
2019-06-04T10:51:16.687Z,26.74
2019-06-04T10:56:13.828Z,27.26
2019-06-04T11:01:11.102Z,27.37
2019-06-04T11:06:07.312Z,26.53
2019-06-04T11:11:03.771Z,25.35
2019-06-04T11:15:59.513Z,25.81
2019-06-04T11:25:59.085Z,26.74
2019-06-04T11:30:56.203Z,26.95
2019-06-04T11:35:56.346Z,26.71
2019-06-04T11:40:54.060Z,26.23
2019-06-04T11:45:55.010Z,26.38
2019-06-04T11:50:51.556Z,27.33
2019-06-04T11:55:49.125Z,27.78
2019-06-04T12:00:46.796Z,28.30
2019-06-04T12:05:44.496Z,27.85
2019-06-04T12:10:39.900Z,27.89
2019-06-04T12:15:36.078Z,27.92
2019-06-04T12:20:31.778Z,27.27
2019-06-04T12:25:28.796Z,27.29
2019-06-04T12:30:24.150Z,26.26
2019-06-04T12:35:19.547Z,25.65
2019-06-04T12:40:14.679Z,25.62
2019-06-04T12:45:10.573Z,26.19
2019-06-04T12:50:07.279Z,25.93
2019-06-04T12:55:03.652Z,26.59
2019-06-04T13:00:00.050Z,26.68
2019-06-04T13:04:55.173Z,25.96
2019-06-04T13:10:08.888Z,25.68
2019-06-04T13:14:50.372Z,25.51
2019-06-04T13:19:46.099Z,25.38
2019-06-04T13:24:42.387Z,25.58
2019-06-04T13:29:45.039Z,25.68
2019-06-04T13:34:37.741Z,25.60
2019-06-04T13:39:33.646Z,25.85
2019-06-04T13:44:30.112Z,25.99
2019-06-04T13:49:34.041Z,25.80
2019-06-04T13:54:26.509Z,26.06
2019-06-04T13:59:22.471Z,26.05
2019-06-04T14:04:17.974Z,25.35
2019-06-04T14:09:16.740Z,25.38
2019-06-04T14:14:26.949Z,25.65
2019-06-04T14:19:11.524Z,25.65
2019-06-04T14:24:08.640Z,25.66
2019-06-04T14:29:05.419Z,25.87
2019-06-04T14:34:01.231Z,25.96
2019-06-04T14:38:57.480Z,25.85
2019-06-04T14:43:53.393Z,25.80
2019-06-04T14:48:49.156Z,25.91
2019-06-04T14:53:45.297Z,26.02
2019-06-04T14:58:41.491Z,26.06
2019-06-04T15:03:37.413Z,26.06
2019-06-04T15:08:33.379Z,26.05
2019-06-04T15:13:29.297Z,26.02
2019-06-04T15:18:25.440Z,26.05
2019-06-04T15:23:21.622Z,25.99
2019-06-04T15:28:17.704Z,26.02
2019-06-04T15:33:14.191Z,25.96
2019-06-04T15:38:12.263Z,26.18
2019-06-04T15:43:07.857Z,26.34
2019-06-04T15:48:03.939Z,26.44
2019-06-04T15:52:59.778Z,26.38
2019-06-04T15:57:57.081Z,26.58
2019-06-04T16:02:54.135Z,26.37
2019-06-04T16:07:50.677Z,26.31
2019-06-04T16:12:46.576Z,26.33
2019-06-04T16:17:42.832Z,26.43
2019-06-04T16:22:38.887Z,26.33
2019-06-04T16:27:34.758Z,26.33
2019-06-04T16:32:30.894Z,26.25
2019-06-04T16:37:28.541Z,26.23
2019-06-04T16:42:34.402Z,26.15
2019-06-04T16:47:25.508Z,26.05
2019-06-04T16:52:21.236Z,26.03
2019-06-04T16:57:17.389Z,26.13
2019-06-04T17:02:13.386Z,26.09
2019-06-04T17:07:09.507Z,26.13
2019-06-04T17:12:07.232Z,26.19
2019-06-04T17:17:03.554Z,26.22
2019-06-04T17:22:00.763Z,26.21
2019-06-04T17:26:56.655Z,26.13
2019-06-04T17:31:54.436Z,26.16
2019-06-04T17:36:50.177Z,26.19
2019-06-04T17:41:47.240Z,26.19
2019-06-04T17:46:43.275Z,26.19
2019-06-04T17:51:39.136Z,26.28
2019-06-04T17:56:35.497Z,26.23
2019-06-04T18:01:33.315Z,26.18
2019-06-04T18:06:29.421Z,26.21
2019-06-04T18:11:26.906Z,26.06
2019-06-04T18:16:22.489Z,26.10
2019-06-04T18:21:18.411Z,26.13
2019-06-04T18:26:14.388Z,26.00
2019-06-04T18:31:10.446Z,26.00
2019-06-04T18:36:06.504Z,26.00
2019-06-04T18:41:03.571Z,25.93
2019-06-04T18:45:59.218Z,25.90
2019-06-04T18:50:59.814Z,25.90
2019-06-04T18:55:55.041Z,25.80
2019-06-04T19:00:51.492Z,25.68
2019-06-04T19:05:47.664Z,25.60
2019-06-04T19:10:43.612Z,25.53
2019-06-04T19:15:41.776Z,25.35
2019-06-04T19:20:38.646Z,25.33
2019-06-04T19:25:35.335Z,25.22
2019-06-04T19:30:31.079Z,25.18
2019-06-04T19:35:27.946Z,25.06
2019-06-04T19:40:23.693Z,25.04
2019-06-04T19:45:19.574Z,24.86
2019-06-04T19:50:18.625Z,24.77
2019-06-04T19:55:13.699Z,24.85
2019-06-04T20:00:09.772Z,24.78
2019-06-04T20:05:06.942Z,24.85
2019-06-04T20:10:03.758Z,24.81
2019-06-04T20:14:59.507Z,24.81
2019-06-04T20:19:55.510Z,24.76
2019-06-04T20:24:51.609Z,24.73
2019-06-04T20:29:48.662Z,24.58
2019-06-04T20:34:45.102Z,24.58
2019-06-04T20:39:42.033Z,24.48
2019-06-04T20:44:41.877Z,24.57
2019-06-04T20:49:40.074Z,24.47
2019-06-04T20:54:40.246Z,24.53
2019-06-04T20:59:37.340Z,24.53
2019-06-04T21:04:34.621Z,24.50
2019-06-04T21:09:30.287Z,24.43
2019-06-04T21:14:27.129Z,24.53
2019-06-04T21:19:22.879Z,24.55
2019-06-04T21:24:19.908Z,24.50
2019-06-04T21:29:15.538Z,24.48
2019-06-04T21:34:11.296Z,24.40
2019-06-04T21:39:07.143Z,24.28
2019-06-04T21:44:04.021Z,24.29
2019-06-04T21:49:00.576Z,24.13
2019-06-04T21:53:56.322Z,24.01
2019-06-04T21:58:54.741Z,23.99
2019-06-04T22:03:49.913Z,23.92
2019-06-04T22:08:45.946Z,24.05
2019-06-04T22:13:42.117Z,24.47
2019-06-04T22:18:39.412Z,24.70
2019-06-04T22:23:35.283Z,24.85
2019-06-04T22:28:31.306Z,24.92
2019-06-04T22:33:28.308Z,24.80
2019-06-04T22:38:24.367Z,24.84
2019-06-04T22:43:21.999Z,24.89
2019-06-04T22:48:17.702Z,24.81
2019-06-04T22:53:13.672Z,24.78
2019-06-04T22:58:09.664Z,24.69
2019-06-04T23:03:05.559Z,23.80
2019-06-04T23:08:02.231Z,23.15
2019-06-04T23:12:58.831Z,23.13
2019-06-04T23:17:55.430Z,23.46
2019-06-04T23:22:52.109Z,23.39
2019-06-04T23:27:47.521Z,22.94
2019-06-04T23:32:43.710Z,22.51
2019-06-04T23:37:39.530Z,22.18
2019-06-04T23:42:35.460Z,22.13
2019-06-04T23:47:31.322Z,22.11
2019-06-04T23:52:28.745Z,22.17
2019-06-04T23:57:25.718Z,22.32
